createdAt,value
2023-09-27T00:01:01.597Z,98063.13
2023-09-27T00:03:28.325Z,98050.25
2023-09-27T00:05:55.207Z,98062.69
2023-09-27T00:08:22.374Z,98064.81
2023-09-27T00:10:49.389Z,98054.66
2023-09-27T00:13:16.141Z,98045.28
2023-09-27T00:15:44.072Z,98055.97
2023-09-27T00:18:12.033Z,98051.75
2023-09-27T00:20:38.889Z,98049.44
2023-09-27T00:23:07.058Z,98042.13
2023-09-27T00:25:33.814Z,98046.56
2023-09-27T00:28:00.627Z,98044.88
2023-09-27T00:30:27.397Z,98036.22
2023-09-27T00:32:54.778Z,98031.97
2023-09-27T00:35:24.322Z,98035.56
2023-09-27T00:37:52.902Z,98039.84
2023-09-27T00:40:22.732Z,98041.06
2023-09-27T00:42:49.761Z,98037.94
2023-09-27T00:45:18.773Z,98038.41
2023-09-27T00:47:47.720Z,98035.44
2023-09-27T00:50:14.807Z,98031.84
2023-09-27T00:52:43.263Z,98034.88
2023-09-27T00:55:15.456Z,98038.91
2023-09-27T00:57:42.473Z,98035.66
2023-09-27T01:00:12.197Z,98029.13
2023-09-27T01:02:40.896Z,98031.09
2023-09-27T01:05:11.422Z,98035.03
2023-09-27T01:07:40.270Z,98029.56
2023-09-27T01:10:08.474Z,98039.19
2023-09-27T01:12:35.580Z,98031.38
2023-09-27T01:15:02.640Z,98036.94
2023-09-27T01:17:29.504Z,98029.50
2023-09-27T01:19:56.537Z,98028.34
2023-09-27T01:22:23.288Z,98025.03
2023-09-27T01:24:51.857Z,98020.97
2023-09-27T01:27:21.145Z,98027.66
2023-09-27T01:29:47.931Z,98021.63
2023-09-27T01:32:14.823Z,98021.63
2023-09-27T01:34:41.564Z,98021.50
2023-09-27T01:37:10.006Z,98015.00
2023-09-27T01:39:36.974Z,98020.88
2023-09-27T01:42:03.779Z,98013.44
2023-09-27T01:44:30.544Z,98008.78
2023-09-27T01:46:57.318Z,98011.59
2023-09-27T01:49:24.068Z,98009.47
2023-09-27T01:51:50.726Z,98013.31
2023-09-27T01:54:17.400Z,98016.06
2023-09-27T01:56:44.208Z,98016.06
2023-09-27T01:59:10.958Z,98014.50
2023-09-27T02:01:37.848Z,98020.00
2023-09-27T02:04:05.617Z,98023.88
2023-09-27T02:06:32.659Z,98027.34
2023-09-27T02:08:59.313Z,98036.25
2023-09-27T02:11:27.200Z,98032.31
2023-09-27T02:13:54.250Z,98039.00
2023-09-27T02:16:21.614Z,98042.84
2023-09-27T02:18:48.433Z,98049.72
2023-09-27T02:21:15.200Z,98043.28
2023-09-27T02:23:42.044Z,98038.63
2023-09-27T02:26:09.059Z,98041.28
2023-09-27T02:28:35.706Z,98050.66
2023-09-27T02:31:02.557Z,98053.75
2023-09-27T02:33:29.343Z,98058.09
2023-09-27T02:35:56.468Z,98059.56
2023-09-27T02:38:23.388Z,98060.06
2023-09-27T02:40:50.200Z,98067.16
2023-09-27T02:43:16.967Z,98072.97
2023-09-27T02:45:44.355Z,98074.91
2023-09-27T02:48:11.051Z,98066.56
2023-09-27T02:50:38.023Z,98065.41
2023-09-27T02:53:05.679Z,98056.78
2023-09-27T02:55:32.427Z,98053.66
2023-09-27T02:57:59.139Z,98052.19
2023-09-27T03:00:27.902Z,98057.94
2023-09-27T03:02:54.773Z,98058.38
2023-09-27T03:05:21.801Z,98058.63
2023-09-27T03:07:49.735Z,98056.47
2023-09-27T03:10:17.566Z,98058.81
2023-09-27T03:12:47.775Z,98049.09
2023-09-27T03:15:14.469Z,98050.78
2023-09-27T03:17:45.714Z,98055.09
2023-09-27T03:20:18.510Z,98059.72
2023-09-27T03:22:46.167Z,98059.63
2023-09-27T03:25:13.438Z,98055.72
2023-09-27T03:27:40.140Z,98068.66
2023-09-27T03:30:10.367Z,98060.53
2023-09-27T03:32:37.182Z,98068.66
2023-09-27T03:35:04.697Z,98064.09
2023-09-27T03:37:31.831Z,98062.09
2023-09-27T03:39:58.492Z,98071.13
2023-09-27T03:42:25.168Z,98060.63
2023-09-27T03:44:52.242Z,98065.00
2023-09-27T03:47:19.054Z,98066.94
2023-09-27T03:49:45.894Z,98063.91
2023-09-27T03:52:12.607Z,98063.16
2023-09-27T03:54:39.282Z,98060.06
2023-09-27T03:57:06.043Z,98056.72
2023-09-27T03:59:32.838Z,98064.22
2023-09-27T04:01:59.783Z,98064.13
2023-09-27T04:04:26.592Z,98064.94
2023-09-27T04:06:53.447Z,98056.72
2023-09-27T04:09:20.138Z,98054.03
2023-09-27T04:11:46.961Z,98054.88
2023-09-27T04:14:13.778Z,98062.69
2023-09-27T04:16:40.487Z,98076.03
2023-09-27T04:19:07.215Z,98071.19
2023-09-27T04:21:33.884Z,98083.78
2023-09-27T04:24:01.307Z,98075.94
2023-09-27T04:26:28.351Z,98074.41
2023-09-27T04:28:55.616Z,98072.09
2023-09-27T04:31:22.573Z,98072.09
2023-09-27T04:33:49.433Z,98081.56
2023-09-27T04:36:19.571Z,98076.84
2023-09-27T04:38:47.013Z,98075.41
2023-09-27T04:41:15.600Z,98069.63
2023-09-27T04:43:45.215Z,98069.63
2023-09-27T04:46:15.790Z,98064.59
2023-09-27T04:48:42.595Z,98071.63
2023-09-27T04:51:10.712Z,98080.25
2023-09-27T04:53:38.954Z,98089.56
2023-09-27T04:56:13.195Z,98079.78
2023-09-27T04:58:42.575Z,98076.28
2023-09-27T05:01:11.141Z,98078.41
2023-09-27T05:03:39.317Z,98070.28
2023-09-27T05:06:06.214Z,98070.28
2023-09-27T05:08:33.095Z,98071.22
2023-09-27T05:10:59.803Z,98076.66
2023-09-27T05:13:26.618Z,98082.06
2023-09-27T05:15:53.666Z,98085.94
2023-09-27T05:18:21.561Z,98091.28
2023-09-27T05:20:48.220Z,98095.22
2023-09-27T05:23:14.869Z,98099.81
2023-09-27T05:25:42.194Z,98096.28
2023-09-27T05:28:09.067Z,98102.09
2023-09-27T05:30:36.025Z,98106.59
2023-09-27T05:33:02.822Z,98108.63
2023-09-27T05:35:29.525Z,98117.16
2023-09-27T05:37:56.929Z,98123.44
2023-09-27T05:40:23.762Z,98126.50
2023-09-27T05:42:50.416Z,98116.31
2023-09-27T05:45:17.061Z,98123.78
2023-09-27T05:47:44.102Z,98119.91
2023-09-27T05:50:13.899Z,98127.34
2023-09-27T05:52:46.353Z,98132.78
2023-09-27T05:55:14.129Z,98124.09
2023-09-27T05:57:40.764Z,98130.72
2023-09-27T06:00:16.860Z,98121.69
2023-09-27T06:02:44.955Z,98127.44
2023-09-27T06:05:12.812Z,98130.97
2023-09-27T06:07:39.733Z,98129.31
2023-09-27T06:10:07.919Z,98122.13
2023-09-27T06:12:34.745Z,98129.50
2023-09-27T06:15:02.376Z,98136.94
2023-09-27T06:17:28.996Z,98139.81
2023-09-27T06:19:56.063Z,98149.63
2023-09-27T06:22:24.433Z,98157.25
2023-09-27T06:24:51.332Z,98149.69
2023-09-27T06:27:18.204Z,98151.16
2023-09-27T06:29:45.186Z,98162.69
2023-09-27T06:32:12.238Z,98166.19
2023-09-27T06:34:38.974Z,98171.25
2023-09-27T06:37:08.732Z,98166.72
2023-09-27T06:39:35.579Z,98165.66
2023-09-27T06:42:03.436Z,98165.34
2023-09-27T06:44:30.408Z,98177.50
2023-09-27T06:46:57.180Z,98182.34
2023-09-27T06:49:23.827Z,98171.72
2023-09-27T06:51:50.537Z,98178.31
2023-09-27T06:54:17.383Z,98177.91
2023-09-27T06:56:44.126Z,98187.69
2023-09-27T06:59:11.139Z,98185.19
2023-09-27T07:01:37.917Z,98186.28
2023-09-27T07:04:04.989Z,98186.47
2023-09-27T07:06:31.792Z,98193.25
2023-09-27T07:08:59.492Z,98206.84
2023-09-27T07:11:26.584Z,98206.81
2023-09-27T07:13:53.658Z,98205.97
2023-09-27T07:16:30.012Z,98206.06
2023-09-27T07:19:01.223Z,98219.88
2023-09-27T07:21:29.472Z,98211.91
2023-09-27T07:23:56.433Z,98217.31
2023-09-27T07:26:23.460Z,98213.03
2023-09-27T07:28:51.905Z,98220.34
2023-09-27T07:31:19.278Z,98219.81
2023-09-27T07:33:46.646Z,98227.91
2023-09-27T07:36:13.486Z,98222.50
2023-09-27T07:38:41.239Z,98216.97
2023-09-27T07:41:10.356Z,98213.44
2023-09-27T07:43:37.692Z,98213.09
2023-09-27T07:46:09.276Z,98212.94
2023-09-27T07:48:39.513Z,98203.34
2023-09-27T07:51:22.260Z,98195.97
2023-09-27T07:53:49.054Z,98185.28
2023-09-27T07:56:24.478Z,98185.09
2023-09-27T07:58:53.714Z,98183.53
2023-09-27T08:01:22.223Z,98186.88
2023-09-27T08:03:50.414Z,98181.47
2023-09-27T08:06:18.357Z,98182.84
2023-09-27T08:08:45.299Z,98185.69
2023-09-27T08:11:14.840Z,98178.63
2023-09-27T08:13:42.279Z,98188.09
2023-09-27T08:16:09.371Z,98194.19
2023-09-27T08:18:37.064Z,98208.31
2023-09-27T08:21:04.916Z,98205.66
2023-09-27T08:23:31.633Z,98203.25
2023-09-27T08:25:58.337Z,98204.22
2023-09-27T08:28:25.289Z,98217.53
2023-09-27T08:30:52.193Z,98211.72
2023-09-27T08:33:18.905Z,98200.38
2023-09-27T08:35:45.662Z,98190.97
2023-09-27T08:38:12.506Z,98200.72
2023-09-27T08:40:40.516Z,98203.69
2023-09-27T08:43:07.286Z,98204.56
2023-09-27T08:45:38.458Z,98186.03
2023-09-27T08:48:06.922Z,98184.41
2023-09-27T08:50:35.853Z,98185.28
2023-09-27T08:53:02.527Z,98191.97
2023-09-27T08:55:29.459Z,98183.59
2023-09-27T08:57:57.254Z,98185.50
2023-09-27T09:00:28.542Z,98176.13
2023-09-27T09:03:00.713Z,98175.69
2023-09-27T09:05:30.497Z,98181.88
2023-09-27T09:08:00.509Z,98173.44
2023-09-27T09:10:27.310Z,98161.22
2023-09-27T09:12:55.561Z,98164.97
2023-09-27T09:15:42.888Z,98167.84
2023-09-27T09:18:16.678Z,98169.03
2023-09-27T09:20:55.742Z,98166.97
2023-09-27T09:23:37.594Z,98165.16
2023-09-27T09:26:07.236Z,98166.81
2023-09-27T09:29:02.442Z,98151.88
2023-09-27T09:31:30.486Z,98159.81
2023-09-27T09:34:08.620Z,98152.84
2023-09-27T09:36:36.398Z,98150.75
2023-09-27T09:39:07.506Z,98139.25
2023-09-27T09:41:46.836Z,98143.66
2023-09-27T09:44:21.431Z,98141.03
2023-09-27T09:46:49.556Z,98144.34
2023-09-27T09:49:17.544Z,98146.59
2023-09-27T09:51:49.717Z,98135.00
2023-09-27T09:54:57.152Z,98136.22
2023-09-27T09:57:52.263Z,98130.94
2023-09-27T10:00:27.300Z,98134.84
2023-09-27T10:03:01.173Z,98130.88
2023-09-27T10:05:35.472Z,98126.59
2023-09-27T10:08:02.464Z,98120.84
2023-09-27T10:10:29.888Z,98112.97
2023-09-27T10:12:58.890Z,98111.81
2023-09-27T10:15:27.045Z,98097.16
2023-09-27T10:17:53.851Z,98095.13
2023-09-27T10:20:25.096Z,98102.22
2023-09-27T10:22:53.429Z,98096.03
2023-09-27T10:25:29.146Z,98091.72
2023-09-27T10:28:10.811Z,98085.78
2023-09-27T10:30:43.484Z,98075.69
2023-09-27T10:33:16.532Z,98077.22
2023-09-27T10:35:48.522Z,98074.69
2023-09-27T10:38:17.286Z,98071.81
2023-09-27T10:40:48.049Z,98074.72
2023-09-27T10:43:44.179Z,98074.13
2023-09-27T10:46:11.022Z,98071.44
2023-09-27T10:48:39.465Z,98063.84
2023-09-27T10:51:06.103Z,98059.28
2023-09-27T10:53:34.092Z,98056.94
2023-09-27T10:56:01.280Z,98057.69
2023-09-27T10:58:28.364Z,98053.53
2023-09-27T11:01:01.855Z,98050.06
2023-09-27T11:03:31.555Z,98047.63
2023-09-27T11:06:17.925Z,98037.16
2023-09-27T11:08:44.614Z,98033.31
2023-09-27T11:11:14.808Z,98037.97
2023-09-27T11:13:44.260Z,98038.03
2023-09-27T11:16:13.424Z,98030.50
2023-09-27T11:18:49.018Z,98014.22
2023-09-27T11:21:17.159Z,98004.06
2023-09-27T11:23:58.266Z,98011.59
2023-09-27T11:26:26.623Z,98009.13
2023-09-27T11:29:00.785Z,98006.34
2023-09-27T11:31:29.894Z,97992.22
2023-09-27T11:34:14.926Z,97988.16
2023-09-27T11:36:54.217Z,97985.28
2023-09-27T11:39:27.894Z,97977.22
2023-09-27T11:42:00.341Z,97985.28
2023-09-27T11:44:29.177Z,97982.50
2023-09-27T11:47:09.938Z,97972.06
2023-09-27T11:49:37.289Z,97962.50
2023-09-27T11:52:11.470Z,97956.53
2023-09-27T11:54:43.378Z,97953.28
2023-09-27T11:57:10.637Z,97950.91
2023-09-27T11:59:41.319Z,97949.13
2023-09-27T12:02:24.421Z,97952.31
2023-09-27T12:04:53.422Z,97944.91
2023-09-27T12:07:20.219Z,97946.53
2023-09-27T12:09:46.969Z,97936.91
2023-09-27T12:12:13.723Z,97934.03
2023-09-27T12:14:40.651Z,97927.69
2023-09-27T12:17:07.308Z,97923.94
2023-09-27T12:19:35.856Z,97920.50
2023-09-27T12:22:04.498Z,97915.66
2023-09-27T12:24:32.287Z,97914.13
2023-09-27T12:26:58.999Z,97910.84
2023-09-27T12:29:25.832Z,97896.22
2023-09-27T12:31:52.660Z,97898.94
2023-09-27T12:34:20.815Z,97884.03
2023-09-27T12:36:48.763Z,97889.88
2023-09-27T12:39:15.995Z,97889.66
2023-09-27T12:41:42.751Z,97884.53
2023-09-27T12:44:13.651Z,97883.91
2023-09-27T12:46:45.440Z,97880.97
2023-09-27T12:49:12.217Z,97873.84
2023-09-27T12:51:48.833Z,97870.03
2023-09-27T12:54:16.687Z,97856.34
2023-09-27T12:56:44.194Z,97858.66
2023-09-27T12:59:11.043Z,97856.25
2023-09-27T13:01:40.725Z,97855.22
2023-09-27T13:04:08.517Z,97854.94
2023-09-27T13:06:36.021Z,97843.97
2023-09-27T13:09:03.058Z,97843.19
2023-09-27T13:11:30.230Z,97839.16
2023-09-27T13:13:57.019Z,97835.09
2023-09-27T13:16:23.658Z,97845.47
2023-09-27T13:18:54.604Z,97827.84
2023-09-27T13:21:21.676Z,97826.00
2023-09-27T13:23:48.400Z,97819.91
2023-09-27T13:26:15.089Z,97818.69
2023-09-27T13:28:41.750Z,97814.47
2023-09-27T13:31:08.624Z,97808.53
2023-09-27T13:33:35.911Z,97801.41
2023-09-27T13:36:02.757Z,97802.63
2023-09-27T13:38:29.502Z,97796.03
2023-09-27T13:40:56.235Z,97788.66
2023-09-27T13:43:22.937Z,97785.03
2023-09-27T13:45:49.668Z,97780.13
2023-09-27T13:48:16.794Z,97785.50
2023-09-27T13:50:43.569Z,97784.88
2023-09-27T13:53:10.282Z,97772.44
2023-09-27T13:55:38.017Z,97778.28
2023-09-27T13:58:04.926Z,97772.84
2023-09-27T14:00:31.622Z,97772.41
2023-09-27T14:02:58.565Z,97774.53
2023-09-27T14:05:26.000Z,97772.75
2023-09-27T14:07:52.907Z,97765.91
2023-09-27T14:10:20.729Z,97764.00
2023-09-27T14:12:48.939Z,97755.66
2023-09-27T14:15:16.686Z,97755.47
2023-09-27T14:17:44.317Z,97764.41
2023-09-27T14:20:15.856Z,97762.91
2023-09-27T14:22:44.128Z,97756.50
2023-09-27T14:25:11.834Z,97753.84
2023-09-27T14:27:38.953Z,97748.25
2023-09-27T14:30:06.694Z,97752.22
2023-09-27T14:32:33.394Z,97744.38
2023-09-27T14:35:00.315Z,97746.84
2023-09-27T14:37:27.625Z,97742.44
2023-09-27T14:39:54.435Z,97732.56
2023-09-27T14:42:22.085Z,97732.31
2023-09-27T14:44:48.803Z,97747.84
2023-09-27T14:47:15.473Z,97737.59
2023-09-27T14:49:42.645Z,97733.44
2023-09-27T14:52:09.621Z,97733.41
2023-09-27T14:54:36.322Z,97729.81
2023-09-27T14:57:02.968Z,97726.06
2023-09-27T14:59:29.581Z,97730.63
2023-09-27T15:01:59.223Z,97722.84
2023-09-27T15:04:26.382Z,97726.00
2023-09-27T15:06:54.303Z,97715.13
2023-09-27T15:09:21.280Z,97714.66
2023-09-27T15:11:47.977Z,97710.63
2023-09-27T15:14:15.260Z,97713.13
2023-09-27T15:16:42.189Z,97704.19
2023-09-27T15:19:09.483Z,97697.78
2023-09-27T15:21:37.716Z,97697.28
2023-09-27T15:24:04.599Z,97699.03
2023-09-27T15:26:31.315Z,97703.78
2023-09-27T15:28:58.031Z,97703.53
2023-09-27T15:31:24.710Z,97697.53
2023-09-27T15:33:52.156Z,97701.22
2023-09-27T15:36:19.292Z,97699.22
2023-09-27T15:38:46.475Z,97700.50
2023-09-27T15:41:17.236Z,97693.38
2023-09-27T15:43:45.022Z,97690.59
2023-09-27T15:46:14.402Z,97685.47
2023-09-27T15:48:41.569Z,97693.78
2023-09-27T15:51:10.098Z,97696.59
2023-09-27T15:53:38.606Z,97689.97
2023-09-27T15:56:07.823Z,97687.72
2023-09-27T15:58:35.114Z,97691.94
2023-09-27T16:01:07.101Z,97694.72
2023-09-27T16:03:34.212Z,97687.34
2023-09-27T16:06:02.363Z,97699.53
2023-09-27T16:08:29.142Z,97693.13
2023-09-27T16:10:57.093Z,97695.38
2023-09-27T16:13:24.224Z,97707.41
2023-09-27T16:15:52.041Z,97701.97
2023-09-27T16:18:20.079Z,97696.91
2023-09-27T16:20:48.281Z,97701.78
2023-09-27T16:23:15.720Z,97696.41
2023-09-27T16:25:43.427Z,97695.06
2023-09-27T16:28:10.870Z,97691.16
2023-09-27T16:30:40.677Z,97688.53
2023-09-27T16:33:07.439Z,97692.97
2023-09-27T16:35:39.075Z,97692.84
2023-09-27T16:38:07.163Z,97697.28
2023-09-27T16:40:34.370Z,97694.63
2023-09-27T16:43:02.631Z,97691.53
2023-09-27T16:45:29.376Z,97700.47
2023-09-27T16:47:56.290Z,97696.66
2023-09-27T16:50:23.022Z,97699.56
2023-09-27T16:52:49.987Z,97704.41
2023-09-27T16:55:16.931Z,97703.91
2023-09-27T16:57:43.583Z,97703.44
2023-09-27T17:00:13.760Z,97707.56
2023-09-27T17:02:41.218Z,97703.31
2023-09-27T17:05:08.904Z,97709.56
2023-09-27T17:07:38.837Z,97709.38
2023-09-27T17:10:08.506Z,97712.53
2023-09-27T17:12:36.194Z,97705.69
2023-09-27T17:15:02.737Z,97710.25
2023-09-27T17:17:30.476Z,97710.78
2023-09-27T17:19:57.468Z,97712.22
2023-09-27T17:22:24.175Z,97711.34
2023-09-27T17:24:52.978Z,97710.16
2023-09-27T17:27:19.800Z,97714.53
2023-09-27T17:29:46.631Z,97714.16
2023-09-27T17:32:13.565Z,97711.25
2023-09-27T17:34:40.307Z,97713.47
2023-09-27T17:37:09.685Z,97711.66
2023-09-27T17:39:37.607Z,97720.00
2023-09-27T17:42:04.468Z,97721.75
2023-09-27T17:44:31.109Z,97713.00
2023-09-27T17:46:59.084Z,97722.16
2023-09-27T17:49:32.386Z,97712.28
2023-09-27T17:51:59.417Z,97714.91
2023-09-27T17:54:26.443Z,97713.69
2023-09-27T17:56:53.027Z,97710.34
2023-09-27T17:59:20.447Z,97721.72
2023-09-27T18:01:49.283Z,97718.38
2023-09-27T18:04:16.926Z,97721.16
2023-09-27T18:06:43.638Z,97719.16
2023-09-27T18:09:10.372Z,97723.00
2023-09-27T18:11:36.940Z,97719.00
2023-09-27T18:14:04.235Z,97721.31
2023-09-27T18:16:31.030Z,97720.19
2023-09-27T18:18:58.042Z,97715.72
2023-09-27T18:21:24.904Z,97717.13
2023-09-27T18:23:52.104Z,97718.78
2023-09-27T18:26:19.328Z,97718.03
2023-09-27T18:28:46.008Z,97710.31
2023-09-27T18:31:13.125Z,97723.53
2023-09-27T18:33:40.506Z,97716.75
2023-09-27T18:36:07.735Z,97719.81
2023-09-27T18:38:34.712Z,97712.72
2023-09-27T18:41:02.561Z,97707.81
2023-09-27T18:43:29.423Z,97716.38
2023-09-27T18:45:58.390Z,97716.53
2023-09-27T18:48:25.199Z,97708.34
2023-09-27T18:50:53.055Z,97712.19
2023-09-27T18:53:21.290Z,97712.31
2023-09-27T18:55:47.960Z,97719.41
2023-09-27T18:58:15.518Z,97723.84
2023-09-27T19:00:46.146Z,97728.16
2023-09-27T19:03:15.434Z,97724.94
2023-09-27T19:05:42.421Z,97724.47
2023-09-27T19:08:09.334Z,97729.22
2023-09-27T19:10:39.348Z,97728.41
2023-09-27T19:13:06.435Z,97727.31
2023-09-27T19:15:33.092Z,97732.19
2023-09-27T19:17:59.985Z,97729.69
2023-09-27T19:20:27.601Z,97720.13
2023-09-27T19:22:54.712Z,97729.75
2023-09-27T19:25:21.837Z,97724.06
2023-09-27T19:27:49.449Z,97719.88
2023-09-27T19:30:17.173Z,97736.28
2023-09-27T19:32:47.496Z,97725.53
2023-09-27T19:35:16.037Z,97728.88
2023-09-27T19:37:43.716Z,97732.25
2023-09-27T19:40:11.104Z,97731.59
2023-09-27T19:42:38.326Z,97721.94
2023-09-27T19:45:06.715Z,97726.72
2023-09-27T19:47:36.038Z,97739.25
2023-09-27T19:50:04.230Z,97736.34
2023-09-27T19:52:31.306Z,97739.56
2023-09-27T19:54:58.004Z,97743.03
2023-09-27T19:57:24.791Z,97745.47
2023-09-27T19:59:51.528Z,97743.47
2023-09-27T20:02:20.790Z,97740.59
2023-09-27T20:04:47.613Z,97734.88
2023-09-27T20:07:14.294Z,97741.16
2023-09-27T20:09:41.206Z,97756.03
2023-09-27T20:12:08.165Z,97754.44
2023-09-27T20:14:35.153Z,97746.44
2023-09-27T20:17:01.809Z,97751.97
2023-09-27T20:19:28.752Z,97738.63
2023-09-27T20:21:59.633Z,97741.31
2023-09-27T20:24:27.703Z,97747.50
2023-09-27T20:26:54.608Z,97753.91
2023-09-27T20:29:21.826Z,97767.81
2023-09-27T20:31:48.573Z,97782.22
2023-09-27T20:34:15.579Z,97781.31
2023-09-27T20:36:42.617Z,97776.22
2023-09-27T20:39:12.162Z,97782.44
2023-09-27T20:41:38.859Z,97788.59
2023-09-27T20:44:07.009Z,97788.72
2023-09-27T20:46:33.753Z,97788.50
2023-09-27T20:49:01.307Z,97794.78
2023-09-27T20:51:28.294Z,97783.97
2023-09-27T20:53:55.510Z,97786.28
2023-09-27T20:56:22.645Z,97787.19
2023-09-27T20:58:49.700Z,97781.88
2023-09-27T21:01:28.053Z,97778.16
2023-09-27T21:03:55.221Z,97776.81
2023-09-27T21:06:26.466Z,97780.03
2023-09-27T21:08:53.193Z,97769.97
2023-09-27T21:11:19.808Z,97776.47
2023-09-27T21:13:46.499Z,97767.34
2023-09-27T21:16:13.363Z,97762.03
2023-09-27T21:18:40.005Z,97753.97
2023-09-27T21:21:06.711Z,97756.59
2023-09-27T21:23:35.417Z,97750.13
2023-09-27T21:26:06.481Z,97742.63
2023-09-27T21:28:33.088Z,97752.88
2023-09-27T21:30:59.713Z,97746.59
2023-09-27T21:33:26.334Z,97745.38
2023-09-27T21:35:58.405Z,97736.66
2023-09-27T21:38:25.074Z,97735.19
2023-09-27T21:40:51.774Z,97729.91
2023-09-27T21:43:18.627Z,97730.78
2023-09-27T21:45:45.781Z,97729.13
2023-09-27T21:48:13.403Z,97723.72
2023-09-27T21:50:40.847Z,97724.69
2023-09-27T21:53:08.633Z,97724.94
2023-09-27T21:55:35.526Z,97723.66
2023-09-27T21:58:02.187Z,97726.31
2023-09-27T22:00:31.414Z,97729.28
2023-09-27T22:02:59.304Z,97731.72
2023-09-27T22:05:30.857Z,97721.13
2023-09-27T22:07:57.776Z,97722.78
2023-09-27T22:10:28.706Z,97720.44
2023-09-27T22:12:55.355Z,97731.47
2023-09-27T22:15:24.984Z,97731.91
2023-09-27T22:17:56.024Z,97722.09
2023-09-27T22:20:22.951Z,97717.53
2023-09-27T22:22:50.847Z,97711.47
2023-09-27T22:25:17.944Z,97710.81
2023-09-27T22:27:46.864Z,97719.41
2023-09-27T22:30:16.999Z,97722.03
2023-09-27T22:32:46.258Z,97718.75
2023-09-27T22:35:23.755Z,97719.41
2023-09-27T22:37:51.711Z,97708.69
2023-09-27T22:40:21.478Z,97716.28
2023-09-27T22:42:49.924Z,97702.53
2023-09-27T22:45:29.739Z,97700.41
2023-09-27T22:47:58.681Z,97705.41
2023-09-27T22:50:30.063Z,97711.59
2023-09-27T22:52:58.045Z,97714.69
2023-09-27T22:55:30.662Z,97721.75
2023-09-27T22:57:57.942Z,97717.88
2023-09-27T23:00:26.605Z,97722.72
2023-09-27T23:02:56.266Z,97723.66
2023-09-27T23:05:33.065Z,97715.59
2023-09-27T23:08:11.207Z,97715.84
2023-09-27T23:10:39.563Z,97729.25
2023-09-27T23:13:07.334Z,97726.47
2023-09-27T23:15:41.130Z,97728.09
2023-09-27T23:18:14.998Z,97719.19
2023-09-27T23:20:42.134Z,97720.06
2023-09-27T23:23:13.785Z,97712.25
2023-09-27T23:25:47.196Z,97724.22
2023-09-27T23:28:29.102Z,97726.13
2023-09-27T23:31:05.865Z,97732.13
2023-09-27T23:33:32.599Z,97729.72
2023-09-27T23:35:59.677Z,97729.22
2023-09-27T23:38:45.394Z,97732.91
2023-09-27T23:41:12.377Z,97745.22
2023-09-27T23:43:41.794Z,97738.34
2023-09-27T23:46:15.337Z,97739.72
2023-09-27T23:48:43.085Z,97738.84
2023-09-27T23:51:09.828Z,97737.78
2023-09-27T23:53:37.390Z,97733.22
2023-09-27T23:56:08.006Z,97727.28
2023-09-27T23:58:35.687Z,97748.78
